sensor_id;sensor_type;location;lat;lon;timestamp;temperature;humidity
38606;DHT22;24365;48.446;8.850;2024-01-30T00:04:18;0.60;85.90
38606;DHT22;24365;48.446;8.850;2024-01-30T00:09:19;0.60;85.80
38606;DHT22;24365;48.446;8.850;2024-01-30T00:14:20;0.60;85.10
38606;DHT22;24365;48.446;8.850;2024-01-30T00:19:21;0.40;85.70
38606;DHT22;24365;48.446;8.850;2024-01-30T00:24:22;0.30;85.90
38606;DHT22;24365;48.446;8.850;2024-01-30T00:29:22;0.20;86.60
38606;DHT22;24365;48.446;8.850;2024-01-30T00:34:23;0.20;88.50
38606;DHT22;24365;48.446;8.850;2024-01-30T00:39:24;0.30;87.50
38606;DHT22;24365;48.446;8.850;2024-01-30T00:44:25;0.20;87.30
38606;DHT22;24365;48.446;8.850;2024-01-30T00:49:26;0.10;88.20
38606;DHT22;24365;48.446;8.850;2024-01-30T00:54:26;0.20;88.50
38606;DHT22;24365;48.446;8.850;2024-01-30T00:59:27;0.20;88.30
38606;DHT22;24365;48.446;8.850;2024-01-30T01:04:28;0.20;88.00
38606;DHT22;24365;48.446;8.850;2024-01-30T01:09:29;0.10;87.80
38606;DHT22;24365;48.446;8.850;2024-01-30T01:14:30;0.20;87.90
38606;DHT22;24365;48.446;8.850;2024-01-30T01:19:31;0.10;87.50
38606;DHT22;24365;48.446;8.850;2024-01-30T01:24:32;0.20;87.50
38606;DHT22;24365;48.446;8.850;2024-01-30T01:29:33;0.10;87.30
38606;DHT22;24365;48.446;8.850;2024-01-30T01:34:34;0.20;87.60
38606;DHT22;24365;48.446;8.850;2024-01-30T01:39:34;0.20;87.50
38606;DHT22;24365;48.446;8.850;2024-01-30T01:44:35;0.10;87.20
38606;DHT22;24365;48.446;8.850;2024-01-30T01:49:36;0.10;86.90
38606;DHT22;24365;48.446;8.850;2024-01-30T01:54:38;0.20;86.80
38606;DHT22;24365;48.446;8.850;2024-01-30T01:59:38;0.10;86.60
38606;DHT22;24365;48.446;8.850;2024-01-30T02:04:39;0.10;86.70
38606;DHT22;24365;48.446;8.850;2024-01-30T02:09:40;0.00;86.80
38606;DHT22;24365;48.446;8.850;2024-01-30T02:14:45;0.00;86.60
38606;DHT22;24365;48.446;8.850;2024-01-30T02:19:46;0.00;86.60
38606;DHT22;24365;48.446;8.850;2024-01-30T02:24:47;-0.10;86.60
38606;DHT22;24365;48.446;8.850;2024-01-30T02:29:48;-0.10;86.70
38606;DHT22;24365;48.446;8.850;2024-01-30T02:34:49;-0.10;86.70
38606;DHT22;24365;48.446;8.850;2024-01-30T02:39:50;-0.20;86.60
38606;DHT22;24365;48.446;8.850;2024-01-30T02:44:51;-0.30;86.80
38606;DHT22;24365;48.446;8.850;2024-01-30T02:49:51;-0.20;86.80
38606;DHT22;24365;48.446;8.850;2024-01-30T02:54:52;-0.30;86.80
38606;DHT22;24365;48.446;8.850;2024-01-30T02:59:53;-0.20;86.80
38606;DHT22;24365;48.446;8.850;2024-01-30T03:04:54;-0.20;86.30
38606;DHT22;24365;48.446;8.850;2024-01-30T03:09:55;-0.30;86.00
38606;DHT22;24365;48.446;8.850;2024-01-30T03:14:56;-0.40;85.80
38606;DHT22;24365;48.446;8.850;2024-01-30T03:19:57;-0.40;86.10
38606;DHT22;24365;48.446;8.850;2024-01-30T03:24:57;-0.40;86.30
38606;DHT22;24365;48.446;8.850;2024-01-30T03:29:58;-0.40;86.20
38606;DHT22;24365;48.446;8.850;2024-01-30T03:34:59;-0.50;86.40
38606;DHT22;24365;48.446;8.850;2024-01-30T03:40:00;-0.50;86.10
38606;DHT22;24365;48.446;8.850;2024-01-30T03:45:01;-0.60;86.30
38606;DHT22;24365;48.446;8.850;2024-01-30T03:50:02;-0.60;86.30
38606;DHT22;24365;48.446;8.850;2024-01-30T03:55:05;-0.60;86.40
38606;DHT22;24365;48.446;8.850;2024-01-30T04:00:06;-0.60;86.50
38606;DHT22;24365;48.446;8.850;2024-01-30T04:05:13;-0.60;86.30
38606;DHT22;24365;48.446;8.850;2024-01-30T04:10:13;-0.70;86.70
38606;DHT22;24365;48.446;8.850;2024-01-30T04:15:14;-0.70;86.50
38606;DHT22;24365;48.446;8.850;2024-01-30T04:20:16;-0.70;86.20
38606;DHT22;24365;48.446;8.850;2024-01-30T04:25:17;-0.70;86.50
38606;DHT22;24365;48.446;8.850;2024-01-30T04:30:17;-0.70;86.20
38606;DHT22;24365;48.446;8.850;2024-01-30T04:35:19;-0.70;86.20
38606;DHT22;24365;48.446;8.850;2024-01-30T04:40:24;-0.80;86.30
38606;DHT22;24365;48.446;8.850;2024-01-30T04:45:24;-0.80;86.50
38606;DHT22;24365;48.446;8.850;2024-01-30T04:50:25;-0.80;86.70
38606;DHT22;24365;48.446;8.850;2024-01-30T04:55:27;-0.80;86.70
38606;DHT22;24365;48.446;8.850;2024-01-30T05:00:28;-0.80;86.50
38606;DHT22;24365;48.446;8.850;2024-01-30T05:05:29;-0.90;86.80
38606;DHT22;24365;48.446;8.850;2024-01-30T05:10:30;-0.90;87.00
38606;DHT22;24365;48.446;8.850;2024-01-30T05:15:30;-0.90;86.60
38606;DHT22;24365;48.446;8.850;2024-01-30T05:20:31;-0.90;86.50
38606;DHT22;24365;48.446;8.850;2024-01-30T05:25:32;-1.00;86.40
38606;DHT22;24365;48.446;8.850;2024-01-30T05:30:33;-1.00;86.40
38606;DHT22;24365;48.446;8.850;2024-01-30T05:35:34;-1.00;86.40
38606;DHT22;24365;48.446;8.850;2024-01-30T05:40:35;-1.00;85.90
38606;DHT22;24365;48.446;8.850;2024-01-30T05:45:36;-1.00;86.10
38606;DHT22;24365;48.446;8.850;2024-01-30T05:50:37;-1.10;86.00
38606;DHT22;24365;48.446;8.850;2024-01-30T05:55:38;-1.10;85.90
38606;DHT22;24365;48.446;8.850;2024-01-30T06:00:38;-1.10;85.80
38606;DHT22;24365;48.446;8.850;2024-01-30T06:05:39;-1.20;85.90
38606;DHT22;24365;48.446;8.850;2024-01-30T06:10:40;-1.20;86.20
38606;DHT22;24365;48.446;8.850;2024-01-30T06:15:41;-1.20;86.20
38606;DHT22;24365;48.446;8.850;2024-01-30T06:20:42;-1.20;86.20
38606;DHT22;24365;48.446;8.850;2024-01-30T06:25:43;-1.10;86.60
38606;DHT22;24365;48.446;8.850;2024-01-30T06:30:44;-1.10;88.10
38606;DHT22;24365;48.446;8.850;2024-01-30T06:35:44;-1.10;88.80
38606;DHT22;24365;48.446;8.850;2024-01-30T06:40:46;-1.20;88.70
38606;DHT22;24365;48.446;8.850;2024-01-30T06:45:47;-1.20;88.30
38606;DHT22;24365;48.446;8.850;2024-01-30T06:50:48;-1.30;87.50
38606;DHT22;24365;48.446;8.850;2024-01-30T06:55:49;-1.30;87.70
38606;DHT22;24365;48.446;8.850;2024-01-30T07:00:51;-1.30;88.10
38606;DHT22;24365;48.446;8.850;2024-01-30T07:05:52;-1.30;87.50
38606;DHT22;24365;48.446;8.850;2024-01-30T07:10:52;-1.30;87.60
38606;DHT22;24365;48.446;8.850;2024-01-30T07:15:55;-1.30;87.20
38606;DHT22;24365;48.446;8.850;2024-01-30T07:20:56;-1.30;88.60
38606;DHT22;24365;48.446;8.850;2024-01-30T07:25:57;-1.30;89.10
38606;DHT22;24365;48.446;8.850;2024-01-30T07:30:58;-1.20;89.30
38606;DHT22;24365;48.446;8.850;2024-01-30T07:35:59;-1.10;89.40
38606;DHT22;24365;48.446;8.850;2024-01-30T07:41:00;-1.00;90.10
38606;DHT22;24365;48.446;8.850;2024-01-30T07:46:01;-0.90;89.80
38606;DHT22;24365;48.446;8.850;2024-01-30T07:51:03;-0.90;90.30
38606;DHT22;24365;48.446;8.850;2024-01-30T07:56:05;-0.80;90.20
38606;DHT22;24365;48.446;8.850;2024-01-30T08:01:06;-0.70;90.10
38606;DHT22;24365;48.446;8.850;2024-01-30T08:06:07;-0.70;90.00
38606;DHT22;24365;48.446;8.850;2024-01-30T08:11:08;-0.70;89.90
38606;DHT22;24365;48.446;8.850;2024-01-30T08:16:08;-0.60;89.70
38606;DHT22;24365;48.446;8.850;2024-01-30T08:21:09;-0.60;89.70
38606;DHT22;24365;48.446;8.850;2024-01-30T08:26:10;-0.50;89.80
38606;DHT22;24365;48.446;8.850;2024-01-30T08:31:11;-0.50;90.30
38606;DHT22;24365;48.446;8.850;2024-01-30T08:36:12;-0.40;90.30
38606;DHT22;24365;48.446;8.850;2024-01-30T08:41:13;-0.20;90.40
38606;DHT22;24365;48.446;8.850;2024-01-30T08:46:17;-0.20;90.50
38606;DHT22;24365;48.446;8.850;2024-01-30T08:51:18;-0.10;90.20
38606;DHT22;24365;48.446;8.850;2024-01-30T08:56:19;0.00;90.20
38606;DHT22;24365;48.446;8.850;2024-01-30T09:01:19;0.20;90.20
38606;DHT22;24365;48.446;8.850;2024-01-30T09:06:20;0.30;89.70
38606;DHT22;24365;48.446;8.850;2024-01-30T09:11:21;0.40;89.20
38606;DHT22;24365;48.446;8.850;2024-01-30T09:16:22;0.50;89.40
38606;DHT22;24365;48.446;8.850;2024-01-30T09:21:23;0.60;89.10
38606;DHT22;24365;48.446;8.850;2024-01-30T09:26:24;0.80;89.10
38606;DHT22;24365;48.446;8.850;2024-01-30T09:31:25;0.90;89.50
38606;DHT22;24365;48.446;8.850;2024-01-30T09:36:26;1.10;89.80
38606;DHT22;24365;48.446;8.850;2024-01-30T09:41:27;1.20;89.60
38606;DHT22;24365;48.446;8.850;2024-01-30T09:46:28;1.30;89.60
38606;DHT22;24365;48.446;8.850;2024-01-30T09:51:32;1.50;89.40
38606;DHT22;24365;48.446;8.850;2024-01-30T09:56:32;1.60;89.60
38606;DHT22;24365;48.446;8.850;2024-01-30T10:01:34;1.80;90.20
38606;DHT22;24365;48.446;8.850;2024-01-30T10:06:37;2.00;90.20
38606;DHT22;24365;48.446;8.850;2024-01-30T10:11:38;2.10;89.90
38606;DHT22;24365;48.446;8.850;2024-01-30T10:16:38;2.30;90.40
38606;DHT22;24365;48.446;8.850;2024-01-30T10:21:40;2.50;90.00
38606;DHT22;24365;48.446;8.850;2024-01-30T10:26:43;2.60;89.30
38606;DHT22;24365;48.446;8.850;2024-01-30T10:31:44;2.70;88.90
38606;DHT22;24365;48.446;8.850;2024-01-30T10:36:46;2.80;88.60
38606;DHT22;24365;48.446;8.850;2024-01-30T10:41:49;2.90;88.60
38606;DHT22;24365;48.446;8.850;2024-01-30T10:46:52;3.20;87.60
38606;DHT22;24365;48.446;8.850;2024-01-30T10:51:55;3.40;86.80
38606;DHT22;24365;48.446;8.850;2024-01-30T10:56:57;3.70;87.50
38606;DHT22;24365;48.446;8.850;2024-01-30T11:01:59;4.00;86.80
38606;DHT22;24365;48.446;8.850;2024-01-30T11:07:00;4.20;84.80
38606;DHT22;24365;48.446;8.850;2024-01-30T11:12:03;4.40;83.80
38606;DHT22;24365;48.446;8.850;2024-01-30T11:17:04;4.70;83.90
38606;DHT22;24365;48.446;8.850;2024-01-30T11:22:08;5.00;84.40
38606;DHT22;24365;48.446;8.850;2024-01-30T11:27:09;5.30;83.50
38606;DHT22;24365;48.446;8.850;2024-01-30T11:32:16;5.60;83.30
38606;DHT22;24365;48.446;8.850;2024-01-30T11:37:24;5.90;81.90
38606;DHT22;24365;48.446;8.850;2024-01-30T11:42:26;6.00;78.30
38606;DHT22;24365;48.446;8.850;2024-01-30T11:47:28;6.20;77.10
38606;DHT22;24365;48.446;8.850;2024-01-30T11:52:29;6.40;77.60
38606;DHT22;24365;48.446;8.850;2024-01-30T11:57:30;6.60;77.60
38606;DHT22;24365;48.446;8.850;2024-01-30T12:02:31;6.70;77.30
38606;DHT22;24365;48.446;8.850;2024-01-30T12:07:32;6.80;76.00
38606;DHT22;24365;48.446;8.850;2024-01-30T12:12:33;7.00;76.40
38606;DHT22;24365;48.446;8.850;2024-01-30T12:17:34;7.00;74.90
38606;DHT22;24365;48.446;8.850;2024-01-30T12:22:35;7.20;73.70
38606;DHT22;24365;48.446;8.850;2024-01-30T12:27:38;7.30;73.20
38606;DHT22;24365;48.446;8.850;2024-01-30T12:32:39;7.50;73.40
38606;DHT22;24365;48.446;8.850;2024-01-30T12:37:41;7.80;73.00
38606;DHT22;24365;48.446;8.850;2024-01-30T12:42:43;7.90;70.30
38606;DHT22;24365;48.446;8.850;2024-01-30T12:47:46;8.00;68.90
38606;DHT22;24365;48.446;8.850;2024-01-30T12:52:47;8.00;70.10
38606;DHT22;24365;48.446;8.850;2024-01-30T12:57:48;8.10;72.40
38606;DHT22;24365;48.446;8.850;2024-01-30T13:02:49;8.10;70.90
38606;DHT22;24365;48.446;8.850;2024-01-30T13:07:50;8.20;70.70
38606;DHT22;24365;48.446;8.850;2024-01-30T13:12:52;8.50;72.00
38606;DHT22;24365;48.446;8.850;2024-01-30T13:17:53;8.90;73.00
38606;DHT22;24365;48.446;8.850;2024-01-30T13:22:55;9.20;67.80
38606;DHT22;24365;48.446;8.850;2024-01-30T13:27:55;9.60;65.50
38606;DHT22;24365;48.446;8.850;2024-01-30T13:32:56;10.00;62.40
38606;DHT22;24365;48.446;8.850;2024-01-30T13:37:57;10.40;58.80
38606;DHT22;24365;48.446;8.850;2024-01-30T13:42:59;10.80;53.00
38606;DHT22;24365;48.446;8.850;2024-01-30T13:48:00;11.30;45.30
38606;DHT22;24365;48.446;8.850;2024-01-30T13:53:02;11.70;43.40
38606;DHT22;24365;48.446;8.850;2024-01-30T13:58:04;12.00;39.30
38606;DHT22;24365;48.446;8.850;2024-01-30T14:03:05;12.10;39.90
38606;DHT22;24365;48.446;8.850;2024-01-30T14:08:06;12.10;39.20
38606;DHT22;24365;48.446;8.850;2024-01-30T14:13:09;12.10;39.00
38606;DHT22;24365;48.446;8.850;2024-01-30T14:18:11;11.90;39.40
38606;DHT22;24365;48.446;8.850;2024-01-30T14:23:12;11.90;40.30
38606;DHT22;24365;48.446;8.850;2024-01-30T14:28:13;11.90;41.50
38606;DHT22;24365;48.446;8.850;2024-01-30T14:33:14;11.80;40.00
38606;DHT22;24365;48.446;8.850;2024-01-30T14:38:15;11.80;40.30
38606;DHT22;24365;48.446;8.850;2024-01-30T14:43:16;11.70;41.50
38606;DHT22;24365;48.446;8.850;2024-01-30T14:48:17;11.50;42.30
38606;DHT22;24365;48.446;8.850;2024-01-30T14:53:17;11.40;43.40
38606;DHT22;24365;48.446;8.850;2024-01-30T14:58:18;11.20;44.40
38606;DHT22;24365;48.446;8.850;2024-01-30T15:03:19;11.10;45.30
38606;DHT22;24365;48.446;8.850;2024-01-30T15:08:20;11.00;44.80
38606;DHT22;24365;48.446;8.850;2024-01-30T15:13:21;11.00;44.80
38606;DHT22;24365;48.446;8.850;2024-01-30T15:18:22;10.90;44.40
38606;DHT22;24365;48.446;8.850;2024-01-30T15:23:22;10.80;45.70
38606;DHT22;24365;48.446;8.850;2024-01-30T15:28:33;10.70;46.30
38606;DHT22;24365;48.446;8.850;2024-01-30T15:33:35;10.40;47.40
38606;DHT22;24365;48.446;8.850;2024-01-30T15:38:36;10.20;49.20
38606;DHT22;24365;48.446;8.850;2024-01-30T15:43:37;10.00;50.70
38606;DHT22;24365;48.446;8.850;2024-01-30T15:48:38;9.90;53.10
38606;DHT22;24365;48.446;8.850;2024-01-30T15:53:40;9.70;53.20
38606;DHT22;24365;48.446;8.850;2024-01-30T15:58:41;9.40;54.10
38606;DHT22;24365;48.446;8.850;2024-01-30T16:03:42;9.20;55.30
38606;DHT22;24365;48.446;8.850;2024-01-30T16:08:45;9.00;58.40
38606;DHT22;24365;48.446;8.850;2024-01-30T16:13:46;8.90;61.50
38606;DHT22;24365;48.446;8.850;2024-01-30T16:18:47;8.80;64.10
38606;DHT22;24365;48.446;8.850;2024-01-30T16:23:48;8.70;65.00
38606;DHT22;24365;48.446;8.850;2024-01-30T16:28:50;8.60;63.30
38606;DHT22;24365;48.446;8.850;2024-01-30T16:33:50;8.40;65.30
38606;DHT22;24365;48.446;8.850;2024-01-30T16:38:51;8.30;67.90
38606;DHT22;24365;48.446;8.850;2024-01-30T16:43:52;8.20;67.70
38606;DHT22;24365;48.446;8.850;2024-01-30T16:48:53;8.10;68.00
38606;DHT22;24365;48.446;8.850;2024-01-30T16:53:54;7.90;67.80
38606;DHT22;24365;48.446;8.850;2024-01-30T16:58:55;7.80;68.10
38606;DHT22;24365;48.446;8.850;2024-01-30T17:03:56;7.80;70.10
38606;DHT22;24365;48.446;8.850;2024-01-30T17:08:57;7.70;70.00
38606;DHT22;24365;48.446;8.850;2024-01-30T17:13:58;7.70;70.60
38606;DHT22;24365;48.446;8.850;2024-01-30T17:18:59;7.60;70.80
38606;DHT22;24365;48.446;8.850;2024-01-30T17:24:00;7.60;71.60
38606;DHT22;24365;48.446;8.850;2024-01-30T17:29:01;7.60;71.40
38606;DHT22;24365;48.446;8.850;2024-01-30T17:34:02;7.50;72.40
38606;DHT22;24365;48.446;8.850;2024-01-30T17:39:02;7.50;72.20
38606;DHT22;24365;48.446;8.850;2024-01-30T17:44:06;7.40;72.30
38606;DHT22;24365;48.446;8.850;2024-01-30T17:49:07;7.30;73.20
38606;DHT22;24365;48.446;8.850;2024-01-30T17:54:08;7.20;74.30
38606;DHT22;24365;48.446;8.850;2024-01-30T17:59:09;7.20;75.10
38606;DHT22;24365;48.446;8.850;2024-01-30T18:04:10;7.20;75.10
38606;DHT22;24365;48.446;8.850;2024-01-30T18:09:11;7.10;75.80
38606;DHT22;24365;48.446;8.850;2024-01-30T18:14:12;7.10;76.00
38606;DHT22;24365;48.446;8.850;2024-01-30T18:19:13;7.10;76.20
38606;DHT22;24365;48.446;8.850;2024-01-30T18:24:14;7.10;76.60
38606;DHT22;24365;48.446;8.850;2024-01-30T18:29:15;7.00;77.00
38606;DHT22;24365;48.446;8.850;2024-01-30T18:34:16;7.00;76.70
38606;DHT22;24365;48.446;8.850;2024-01-30T18:39:17;7.00;76.20
38606;DHT22;24365;48.446;8.850;2024-01-30T18:44:18;7.00;76.20
38606;DHT22;24365;48.446;8.850;2024-01-30T18:49:18;7.00;75.80
38606;DHT22;24365;48.446;8.850;2024-01-30T18:54:20;6.90;76.20
38606;DHT22;24365;48.446;8.850;2024-01-30T18:59:21;6.90;76.50
38606;DHT22;24365;48.446;8.850;2024-01-30T19:04:22;6.80;77.00
38606;DHT22;24365;48.446;8.850;2024-01-30T19:09:23;6.70;77.80
38606;DHT22;24365;48.446;8.850;2024-01-30T19:14:26;6.60;77.60
38606;DHT22;24365;48.446;8.850;2024-01-30T19:19:27;6.50;78.40
38606;DHT22;24365;48.446;8.850;2024-01-30T19:24:28;6.40;78.40
38606;DHT22;24365;48.446;8.850;2024-01-30T19:29:29;6.40;78.90
38606;DHT22;24365;48.446;8.850;2024-01-30T19:34:30;6.30;79.20
38606;DHT22;24365;48.446;8.850;2024-01-30T19:39:32;6.20;80.00
38606;DHT22;24365;48.446;8.850;2024-01-30T19:44:32;6.20;79.80
38606;DHT22;24365;48.446;8.850;2024-01-30T19:49:34;6.10;80.30
38606;DHT22;24365;48.446;8.850;2024-01-30T19:54:35;6.20;80.40
38606;DHT22;24365;48.446;8.850;2024-01-30T19:59:36;6.20;80.00
38606;DHT22;24365;48.446;8.850;2024-01-30T20:04:37;6.10;80.20
38606;DHT22;24365;48.446;8.850;2024-01-30T20:09:41;6.10;80.80
38606;DHT22;24365;48.446;8.850;2024-01-30T20:14:42;6.00;80.50
38606;DHT22;24365;48.446;8.850;2024-01-30T20:19:43;5.90;81.40
38606;DHT22;24365;48.446;8.850;2024-01-30T20:24:44;5.80;81.70
38606;DHT22;24365;48.446;8.850;2024-01-30T20:29:46;5.70;82.00
38606;DHT22;24365;48.446;8.850;2024-01-30T20:34:47;5.60;82.50
38606;DHT22;24365;48.446;8.850;2024-01-30T20:39:48;5.60;82.80
38606;DHT22;24365;48.446;8.850;2024-01-30T20:44:49;5.70;82.70
38606;DHT22;24365;48.446;8.850;2024-01-30T20:49:50;5.60;82.20
38606;DHT22;24365;48.446;8.850;2024-01-30T20:54:51;5.50;81.90
38606;DHT22;24365;48.446;8.850;2024-01-30T20:59:52;5.50;82.10
38606;DHT22;24365;48.446;8.850;2024-01-30T21:04:54;5.30;82.30
38606;DHT22;24365;48.446;8.850;2024-01-30T21:09:54;5.20;82.00
38606;DHT22;24365;48.446;8.850;2024-01-30T21:14:55;5.10;82.50
38606;DHT22;24365;48.446;8.850;2024-01-30T21:19:56;5.00;83.20
38606;DHT22;24365;48.446;8.850;2024-01-30T21:24:58;4.90;83.40
38606;DHT22;24365;48.446;8.850;2024-01-30T21:29:59;4.90;82.20
38606;DHT22;24365;48.446;8.850;2024-01-30T21:35:00;4.80;83.30
38606;DHT22;24365;48.446;8.850;2024-01-30T21:40:01;4.70;83.10
38606;DHT22;24365;48.446;8.850;2024-01-30T21:45:04;4.60;83.20
38606;DHT22;24365;48.446;8.850;2024-01-30T21:50:05;4.60;83.70
38606;DHT22;24365;48.446;8.850;2024-01-30T21:55:07;4.60;83.90
38606;DHT22;24365;48.446;8.850;2024-01-30T22:00:10;4.50;83.90
38606;DHT22;24365;48.446;8.850;2024-01-30T22:05:11;4.40;84.40
38606;DHT22;24365;48.446;8.850;2024-01-30T22:10:11;4.40;84.20
38606;DHT22;24365;48.446;8.850;2024-01-30T22:15:12;4.30;84.70
38606;DHT22;24365;48.446;8.850;2024-01-30T22:20:13;4.30;85.00
38606;DHT22;24365;48.446;8.850;2024-01-30T22:25:14;4.30;85.20
38606;DHT22;24365;48.446;8.850;2024-01-30T22:30:15;4.20;85.50
38606;DHT22;24365;48.446;8.850;2024-01-30T22:35:16;4.30;85.60
38606;DHT22;24365;48.446;8.850;2024-01-30T22:40:17;4.20;85.40
38606;DHT22;24365;48.446;8.850;2024-01-30T22:45:18;4.20;85.80
38606;DHT22;24365;48.446;8.850;2024-01-30T22:50:19;4.20;85.40
38606;DHT22;24365;48.446;8.850;2024-01-30T22:55:19;4.30;86.00
38606;DHT22;24365;48.446;8.850;2024-01-30T23:00:20;4.20;85.20
38606;DHT22;24365;48.446;8.850;2024-01-30T23:05:28;4.20;85.40
38606;DHT22;24365;48.446;8.850;2024-01-30T23:10:30;4.10;85.60
38606;DHT22;24365;48.446;8.850;2024-01-30T23:15:31;4.10;85.90
38606;DHT22;24365;48.446;8.850;2024-01-30T23:20:32;4.20;86.40
38606;DHT22;24365;48.446;8.850;2024-01-30T23:25:33;4.10;86.20
38606;DHT22;24365;48.446;8.850;2024-01-30T23:30:34;4.10;86.30
38606;DHT22;24365;48.446;8.850;2024-01-30T23:35:35;4.10;86.40
38606;DHT22;24365;48.446;8.850;2024-01-30T23:40:36;4.00;86.70
38606;DHT22;24365;48.446;8.850;2024-01-30T23:45:38;4.00;86.80
38606;DHT22;24365;48.446;8.850;2024-01-30T23:50:39;4.10;87.00
38606;DHT22;24365;48.446;8.850;2024-01-30T23:55:40;4.00;86.90
